sensor_id;sensor_type;location;lat;lon;timestamp;P1;durP1;ratioP1;P2;durP2;ratioP2
485;SDS011;229;48.734;9.340;2024-02-14T00:00:57;11.05;;;6.13;;
485;SDS011;229;48.734;9.340;2024-02-14T00:03:24;9.70;;;5.75;;
485;SDS011;229;48.734;9.340;2024-02-14T00:05:52;9.65;;;5.03;;
485;SDS011;229;48.734;9.340;2024-02-14T00:08:21;10.90;;;6.28;;
485;SDS011;229;48.734;9.340;2024-02-14T00:10:49;9.07;;;6.30;;
485;SDS011;229;48.734;9.340;2024-02-14T00:13:16;12.23;;;6.40;;
485;SDS011;229;48.734;9.340;2024-02-14T00:15:43;7.75;;;6.20;;
485;SDS011;229;48.734;9.340;2024-02-14T00:18:11;10.40;;;5.75;;
485;SDS011;229;48.734;9.340;2024-02-14T00:20:38;10.43;;;5.90;;
485;SDS011;229;48.734;9.340;2024-02-14T00:23:06;8.23;;;5.90;;
485;SDS011;229;48.734;9.340;2024-02-14T00:25:33;10.68;;;6.13;;
485;SDS011;229;48.734;9.340;2024-02-14T00:28:01;7.25;;;5.50;;
485;SDS011;229;48.734;9.340;2024-02-14T00:30:28;7.55;;;5.45;;
485;SDS011;229;48.734;9.340;2024-02-14T00:32:56;9.00;;;6.18;;
485;SDS011;229;48.734;9.340;2024-02-14T00:35:23;9.10;;;6.18;;
485;SDS011;229;48.734;9.340;2024-02-14T00:37:50;8.25;;;5.50;;
485;SDS011;229;48.734;9.340;2024-02-14T00:40:18;9.30;;;5.90;;
485;SDS011;229;48.734;9.340;2024-02-14T00:42:45;10.63;;;6.05;;
485;SDS011;229;48.734;9.340;2024-02-14T00:45:13;8.93;;;6.70;;
485;SDS011;229;48.734;9.340;2024-02-14T00:47:41;10.15;;;6.97;;
485;SDS011;229;48.734;9.340;2024-02-14T00:50:08;12.70;;;6.45;;
485;SDS011;229;48.734;9.340;2024-02-14T00:52:37;11.07;;;7.72;;
485;SDS011;229;48.734;9.340;2024-02-14T00:55:05;11.00;;;7.45;;
485;SDS011;229;48.734;9.340;2024-02-14T00:57:32;19.48;;;7.70;;
485;SDS011;229;48.734;9.340;2024-02-14T00:59:59;10.02;;;6.25;;
485;SDS011;229;48.734;9.340;2024-02-14T01:02:28;9.93;;;6.55;;
485;SDS011;229;48.734;9.340;2024-02-14T01:04:55;10.75;;;6.50;;
485;SDS011;229;48.734;9.340;2024-02-14T01:07:22;8.10;;;5.35;;
485;SDS011;229;48.734;9.340;2024-02-14T01:09:49;9.05;;;6.15;;
485;SDS011;229;48.734;9.340;2024-02-14T01:12:16;10.25;;;6.28;;
485;SDS011;229;48.734;9.340;2024-02-14T01:14:44;8.32;;;6.13;;
485;SDS011;229;48.734;9.340;2024-02-14T01:17:11;10.85;;;5.30;;
485;SDS011;229;48.734;9.340;2024-02-14T01:19:40;10.75;;;6.10;;
485;SDS011;229;48.734;9.340;2024-02-14T01:22:08;7.68;;;6.07;;
485;SDS011;229;48.734;9.340;2024-02-14T01:24:36;10.10;;;6.53;;
485;SDS011;229;48.734;9.340;2024-02-14T01:27:03;10.27;;;7.13;;
485;SDS011;229;48.734;9.340;2024-02-14T01:29:30;12.85;;;7.60;;
485;SDS011;229;48.734;9.340;2024-02-14T01:31:57;16.65;;;8.40;;
485;SDS011;229;48.734;9.340;2024-02-14T01:34:24;12.27;;;7.40;;
485;SDS011;229;48.734;9.340;2024-02-14T01:36:54;13.88;;;7.60;;
485;SDS011;229;48.734;9.340;2024-02-14T01:39:21;11.95;;;7.32;;
485;SDS011;229;48.734;9.340;2024-02-14T01:41:49;18.02;;;8.20;;
485;SDS011;229;48.734;9.340;2024-02-14T01:44:16;17.27;;;8.75;;
485;SDS011;229;48.734;9.340;2024-02-14T01:46:46;15.38;;;9.52;;
485;SDS011;229;48.734;9.340;2024-02-14T01:49:13;12.35;;;8.20;;
485;SDS011;229;48.734;9.340;2024-02-14T01:51:42;13.85;;;8.45;;
485;SDS011;229;48.734;9.340;2024-02-14T01:54:11;13.57;;;8.30;;
485;SDS011;229;48.734;9.340;2024-02-14T01:56:39;11.70;;;7.97;;
485;SDS011;229;48.734;9.340;2024-02-14T01:59:06;15.13;;;9.20;;
485;SDS011;229;48.734;9.340;2024-02-14T02:01:35;14.18;;;8.85;;
485;SDS011;229;48.734;9.340;2024-02-14T02:04:02;14.40;;;9.68;;
485;SDS011;229;48.734;9.340;2024-02-14T02:06:30;18.48;;;9.95;;
485;SDS011;229;48.734;9.340;2024-02-14T02:08:57;21.58;;;10.88;;
485;SDS011;229;48.734;9.340;2024-02-14T02:11:26;21.45;;;11.90;;
485;SDS011;229;48.734;9.340;2024-02-14T02:13:53;24.35;;;12.48;;
485;SDS011;229;48.734;9.340;2024-02-14T02:16:20;18.27;;;10.75;;
485;SDS011;229;48.734;9.340;2024-02-14T02:18:47;16.30;;;11.57;;
485;SDS011;229;48.734;9.340;2024-02-14T02:21:15;19.33;;;10.32;;
485;SDS011;229;48.734;9.340;2024-02-14T02:23:46;16.67;;;10.50;;
485;SDS011;229;48.734;9.340;2024-02-14T02:26:13;20.08;;;10.32;;
485;SDS011;229;48.734;9.340;2024-02-14T02:28:40;16.10;;;10.35;;
485;SDS011;229;48.734;9.340;2024-02-14T02:31:07;18.65;;;10.98;;
485;SDS011;229;48.734;9.340;2024-02-14T02:33:35;29.00;;;11.23;;
485;SDS011;229;48.734;9.340;2024-02-14T02:36:02;15.93;;;10.50;;
485;SDS011;229;48.734;9.340;2024-02-14T02:38:31;15.80;;;11.50;;
485;SDS011;229;48.734;9.340;2024-02-14T02:41:00;22.67;;;11.70;;
485;SDS011;229;48.734;9.340;2024-02-14T02:43:27;24.75;;;12.55;;
485;SDS011;229;48.734;9.340;2024-02-14T02:45:55;15.90;;;10.20;;
485;SDS011;229;48.734;9.340;2024-02-14T02:48:23;17.13;;;10.65;;
485;SDS011;229;48.734;9.340;2024-02-14T02:50:50;18.58;;;10.80;;
485;SDS011;229;48.734;9.340;2024-02-14T02:53:17;18.15;;;10.93;;
485;SDS011;229;48.734;9.340;2024-02-14T02:55:45;19.77;;;11.82;;
485;SDS011;229;48.734;9.340;2024-02-14T02:58:13;17.80;;;11.10;;
485;SDS011;229;48.734;9.340;2024-02-14T03:00:41;20.83;;;12.10;;
485;SDS011;229;48.734;9.340;2024-02-14T03:03:08;15.82;;;10.50;;
485;SDS011;229;48.734;9.340;2024-02-14T03:05:36;14.98;;;10.25;;
485;SDS011;229;48.734;9.340;2024-02-14T03:08:04;18.60;;;10.52;;
485;SDS011;229;48.734;9.340;2024-02-14T03:10:32;20.20;;;11.52;;
485;SDS011;229;48.734;9.340;2024-02-14T03:12:59;19.60;;;10.77;;
485;SDS011;229;48.734;9.340;2024-02-14T03:15:28;16.23;;;10.60;;
485;SDS011;229;48.734;9.340;2024-02-14T03:17:55;19.23;;;11.05;;
485;SDS011;229;48.734;9.340;2024-02-14T03:20:22;21.20;;;10.52;;
485;SDS011;229;48.734;9.340;2024-02-14T03:22:49;17.25;;;11.38;;
485;SDS011;229;48.734;9.340;2024-02-14T03:25:19;18.88;;;11.38;;
485;SDS011;229;48.734;9.340;2024-02-14T03:27:46;16.48;;;10.85;;
485;SDS011;229;48.734;9.340;2024-02-14T03:30:16;17.48;;;10.90;;
485;SDS011;229;48.734;9.340;2024-02-14T03:32:45;16.27;;;11.25;;
485;SDS011;229;48.734;9.340;2024-02-14T03:35:12;17.67;;;10.70;;
485;SDS011;229;48.734;9.340;2024-02-14T03:37:39;16.50;;;11.07;;
485;SDS011;229;48.734;9.340;2024-02-14T03:40:08;18.23;;;10.98;;
485;SDS011;229;48.734;9.340;2024-02-14T03:42:36;14.63;;;11.10;;
485;SDS011;229;48.734;9.340;2024-02-14T03:45:04;17.20;;;10.55;;
485;SDS011;229;48.734;9.340;2024-02-14T03:47:31;17.35;;;10.48;;
485;SDS011;229;48.734;9.340;2024-02-14T03:50:00;16.15;;;11.65;;
485;SDS011;229;48.734;9.340;2024-02-14T03:52:29;16.67;;;11.02;;
485;SDS011;229;48.734;9.340;2024-02-14T03:54:57;15.88;;;11.18;;
485;SDS011;229;48.734;9.340;2024-02-14T03:57:25;18.17;;;11.50;;
485;SDS011;229;48.734;9.340;2024-02-14T03:59:53;16.25;;;10.63;;
485;SDS011;229;48.734;9.340;2024-02-14T04:02:21;16.42;;;11.40;;
485;SDS011;229;48.734;9.340;2024-02-14T04:04:48;17.33;;;12.27;;
485;SDS011;229;48.734;9.340;2024-02-14T04:07:17;18.52;;;11.13;;
485;SDS011;229;48.734;9.340;2024-02-14T04:09:44;17.30;;;12.20;;
485;SDS011;229;48.734;9.340;2024-02-14T04:12:11;18.77;;;12.30;;
485;SDS011;229;48.734;9.340;2024-02-14T04:14:38;17.00;;;12.02;;
485;SDS011;229;48.734;9.340;2024-02-14T04:17:06;16.27;;;12.38;;
485;SDS011;229;48.734;9.340;2024-02-14T04:19:33;16.88;;;11.20;;
485;SDS011;229;48.734;9.340;2024-02-14T04:22:01;13.70;;;11.25;;
485;SDS011;229;48.734;9.340;2024-02-14T04:24:29;18.40;;;11.40;;
485;SDS011;229;48.734;9.340;2024-02-14T04:26:56;14.20;;;11.15;;
485;SDS011;229;48.734;9.340;2024-02-14T04:29:23;16.20;;;11.85;;
485;SDS011;229;48.734;9.340;2024-02-14T04:31:51;18.48;;;11.93;;
485;SDS011;229;48.734;9.340;2024-02-14T04:34:19;15.90;;;10.45;;
485;SDS011;229;48.734;9.340;2024-02-14T04:36:46;20.52;;;12.68;;
485;SDS011;229;48.734;9.340;2024-02-14T04:39:13;16.05;;;10.70;;
485;SDS011;229;48.734;9.340;2024-02-14T04:41:42;16.38;;;11.50;;
485;SDS011;229;48.734;9.340;2024-02-14T04:44:09;17.10;;;11.85;;
485;SDS011;229;48.734;9.340;2024-02-14T04:46:36;19.35;;;11.05;;
485;SDS011;229;48.734;9.340;2024-02-14T04:49:04;14.50;;;11.00;;
485;SDS011;229;48.734;9.340;2024-02-14T04:51:31;18.45;;;11.48;;
485;SDS011;229;48.734;9.340;2024-02-14T04:53:58;16.00;;;10.75;;
485;SDS011;229;48.734;9.340;2024-02-14T04:56:26;13.35;;;10.60;;
485;SDS011;229;48.734;9.340;2024-02-14T04:58:54;12.95;;;10.20;;
485;SDS011;229;48.734;9.340;2024-02-14T05:01:21;16.00;;;10.15;;
485;SDS011;229;48.734;9.340;2024-02-14T05:03:49;14.02;;;10.10;;
485;SDS011;229;48.734;9.340;2024-02-14T05:06:16;17.55;;;11.43;;
485;SDS011;229;48.734;9.340;2024-02-14T05:08:43;15.25;;;11.00;;
485;SDS011;229;48.734;9.340;2024-02-14T05:11:10;13.82;;;10.38;;
485;SDS011;229;48.734;9.340;2024-02-14T05:13:37;18.15;;;10.35;;
485;SDS011;229;48.734;9.340;2024-02-14T05:16:08;16.48;;;11.00;;
485;SDS011;229;48.734;9.340;2024-02-14T05:18:35;15.77;;;10.18;;
485;SDS011;229;48.734;9.340;2024-02-14T05:21:04;16.20;;;10.23;;
485;SDS011;229;48.734;9.340;2024-02-14T05:23:32;15.73;;;10.80;;
485;SDS011;229;48.734;9.340;2024-02-14T05:25:59;18.77;;;11.75;;
485;SDS011;229;48.734;9.340;2024-02-14T05:28:27;15.15;;;10.48;;
485;SDS011;229;48.734;9.340;2024-02-14T05:30:54;16.52;;;10.32;;
485;SDS011;229;48.734;9.340;2024-02-14T05:33:22;13.00;;;10.00;;
485;SDS011;229;48.734;9.340;2024-02-14T05:35:49;14.52;;;10.30;;
485;SDS011;229;48.734;9.340;2024-02-14T05:38:17;21.83;;;10.75;;
485;SDS011;229;48.734;9.340;2024-02-14T05:40:45;17.45;;;11.07;;
485;SDS011;229;48.734;9.340;2024-02-14T05:43:12;14.23;;;9.82;;
485;SDS011;229;48.734;9.340;2024-02-14T05:45:39;15.60;;;10.90;;
485;SDS011;229;48.734;9.340;2024-02-14T05:48:07;17.20;;;11.25;;
485;SDS011;229;48.734;9.340;2024-02-14T05:50:35;15.55;;;10.25;;
485;SDS011;229;48.734;9.340;2024-02-14T05:53:03;14.10;;;10.02;;
485;SDS011;229;48.734;9.340;2024-02-14T05:55:31;15.43;;;9.95;;
485;SDS011;229;48.734;9.340;2024-02-14T05:57:58;14.70;;;10.50;;
485;SDS011;229;48.734;9.340;2024-02-14T06:00:25;15.43;;;9.75;;
485;SDS011;229;48.734;9.340;2024-02-14T06:02:53;18.88;;;9.75;;
485;SDS011;229;48.734;9.340;2024-02-14T06:05:20;13.93;;;9.70;;
485;SDS011;229;48.734;9.340;2024-02-14T06:07:48;14.07;;;10.32;;
485;SDS011;229;48.734;9.340;2024-02-14T06:10:16;15.82;;;9.52;;
485;SDS011;229;48.734;9.340;2024-02-14T06:12:44;15.82;;;10.05;;
485;SDS011;229;48.734;9.340;2024-02-14T06:15:13;12.77;;;9.60;;
485;SDS011;229;48.734;9.340;2024-02-14T06:17:40;15.48;;;10.00;;
485;SDS011;229;48.734;9.340;2024-02-14T06:20:07;13.80;;;9.60;;
485;SDS011;229;48.734;9.340;2024-02-14T06:22:35;22.98;;;9.30;;
485;SDS011;229;48.734;9.340;2024-02-14T06:25:04;15.90;;;9.18;;
485;SDS011;229;48.734;9.340;2024-02-14T06:27:31;16.70;;;8.25;;
485;SDS011;229;48.734;9.340;2024-02-14T06:29:58;16.95;;;9.20;;
485;SDS011;229;48.734;9.340;2024-02-14T06:32:25;15.60;;;9.70;;
485;SDS011;229;48.734;9.340;2024-02-14T06:34:52;15.57;;;9.18;;
485;SDS011;229;48.734;9.340;2024-02-14T06:37:20;16.88;;;9.15;;
485;SDS011;229;48.734;9.340;2024-02-14T06:39:47;16.33;;;9.43;;
485;SDS011;229;48.734;9.340;2024-02-14T06:42:16;14.23;;;9.77;;
485;SDS011;229;48.734;9.340;2024-02-14T06:44:43;13.77;;;10.10;;
485;SDS011;229;48.734;9.340;2024-02-14T06:47:10;15.45;;;8.07;;
485;SDS011;229;48.734;9.340;2024-02-14T06:49:38;12.25;;;8.82;;
485;SDS011;229;48.734;9.340;2024-02-14T06:52:05;10.52;;;8.05;;
485;SDS011;229;48.734;9.340;2024-02-14T06:54:32;12.88;;;8.20;;
485;SDS011;229;48.734;9.340;2024-02-14T06:56:59;10.90;;;7.00;;
485;SDS011;229;48.734;9.340;2024-02-14T06:59:28;9.13;;;7.20;;
485;SDS011;229;48.734;9.340;2024-02-14T07:01:55;12.68;;;6.18;;
485;SDS011;229;48.734;9.340;2024-02-14T07:04:22;8.20;;;5.57;;
485;SDS011;229;48.734;9.340;2024-02-14T07:06:51;11.82;;;7.05;;
485;SDS011;229;48.734;9.340;2024-02-14T07:09:18;13.63;;;7.80;;
485;SDS011;229;48.734;9.340;2024-02-14T07:11:46;13.18;;;7.65;;
485;SDS011;229;48.734;9.340;2024-02-14T07:14:13;14.13;;;7.20;;
485;SDS011;229;48.734;9.340;2024-02-14T07:16:41;15.55;;;6.28;;
485;SDS011;229;48.734;9.340;2024-02-14T07:19:08;8.13;;;4.80;;
485;SDS011;229;48.734;9.340;2024-02-14T07:21:36;9.73;;;5.75;;
485;SDS011;229;48.734;9.340;2024-02-14T07:24:04;11.02;;;5.35;;
485;SDS011;229;48.734;9.340;2024-02-14T07:26:31;8.65;;;5.78;;
485;SDS011;229;48.734;9.340;2024-02-14T07:28:58;8.32;;;5.65;;
485;SDS011;229;48.734;9.340;2024-02-14T07:31:28;15.38;;;7.55;;
485;SDS011;229;48.734;9.340;2024-02-14T07:33:59;9.40;;;6.60;;
485;SDS011;229;48.734;9.340;2024-02-14T07:36:28;15.45;;;7.55;;
485;SDS011;229;48.734;9.340;2024-02-14T07:38:55;17.85;;;10.07;;
485;SDS011;229;48.734;9.340;2024-02-14T07:41:22;16.10;;;9.32;;
485;SDS011;229;48.734;9.340;2024-02-14T07:43:49;15.35;;;9.50;;
485;SDS011;229;48.734;9.340;2024-02-14T07:46:17;14.27;;;9.23;;
485;SDS011;229;48.734;9.340;2024-02-14T07:48:45;18.17;;;8.85;;
485;SDS011;229;48.734;9.340;2024-02-14T07:51:15;15.38;;;9.05;;
485;SDS011;229;48.734;9.340;2024-02-14T07:53:42;12.60;;;9.10;;
485;SDS011;229;48.734;9.340;2024-02-14T07:56:09;16.00;;;7.88;;
485;SDS011;229;48.734;9.340;2024-02-14T07:58:37;13.93;;;8.05;;
485;SDS011;229;48.734;9.340;2024-02-14T08:01:04;13.38;;;6.75;;
485;SDS011;229;48.734;9.340;2024-02-14T08:03:31;10.50;;;7.60;;
485;SDS011;229;48.734;9.340;2024-02-14T08:05:59;12.73;;;7.40;;
485;SDS011;229;48.734;9.340;2024-02-14T08:08:28;13.90;;;7.70;;
485;SDS011;229;48.734;9.340;2024-02-14T08:10:55;13.63;;;7.95;;
485;SDS011;229;48.734;9.340;2024-02-14T08:13:22;14.63;;;7.50;;
485;SDS011;229;48.734;9.340;2024-02-14T08:15:49;19.95;;;9.65;;
485;SDS011;229;48.734;9.340;2024-02-14T08:18:17;18.20;;;9.00;;
485;SDS011;229;48.734;9.340;2024-02-14T08:20:45;16.30;;;9.30;;
485;SDS011;229;48.734;9.340;2024-02-14T08:23:12;13.10;;;8.38;;
485;SDS011;229;48.734;9.340;2024-02-14T08:25:40;17.27;;;8.75;;
485;SDS011;229;48.734;9.340;2024-02-14T08:28:07;17.70;;;9.07;;
485;SDS011;229;48.734;9.340;2024-02-14T08:30:34;15.00;;;9.00;;
485;SDS011;229;48.734;9.340;2024-02-14T08:33:02;14.32;;;8.13;;
485;SDS011;229;48.734;9.340;2024-02-14T08:35:30;16.90;;;8.20;;
485;SDS011;229;48.734;9.340;2024-02-14T08:37:58;13.68;;;8.38;;
485;SDS011;229;48.734;9.340;2024-02-14T08:40:25;14.90;;;7.78;;
485;SDS011;229;48.734;9.340;2024-02-14T08:42:56;13.05;;;7.72;;
485;SDS011;229;48.734;9.340;2024-02-14T08:45:24;14.18;;;8.20;;
485;SDS011;229;48.734;9.340;2024-02-14T08:47:54;22.23;;;9.23;;
485;SDS011;229;48.734;9.340;2024-02-14T08:50:22;10.95;;;7.30;;
485;SDS011;229;48.734;9.340;2024-02-14T08:52:49;10.35;;;7.30;;
485;SDS011;229;48.734;9.340;2024-02-14T08:55:16;14.52;;;6.80;;
485;SDS011;229;48.734;9.340;2024-02-14T08:57:43;9.00;;;7.28;;
485;SDS011;229;48.734;9.340;2024-02-14T09:00:14;13.35;;;6.95;;
485;SDS011;229;48.734;9.340;2024-02-14T09:02:44;11.00;;;7.05;;
485;SDS011;229;48.734;9.340;2024-02-14T09:05:12;10.25;;;5.40;;
485;SDS011;229;48.734;9.340;2024-02-14T09:07:41;7.65;;;4.97;;
485;SDS011;229;48.734;9.340;2024-02-14T09:10:09;6.85;;;4.57;;
485;SDS011;229;48.734;9.340;2024-02-14T09:12:37;11.30;;;4.97;;
485;SDS011;229;48.734;9.340;2024-02-14T09:15:06;12.27;;;5.13;;
485;SDS011;229;48.734;9.340;2024-02-14T09:17:35;9.77;;;5.70;;
485;SDS011;229;48.734;9.340;2024-02-14T09:20:03;9.15;;;5.00;;
485;SDS011;229;48.734;9.340;2024-02-14T09:22:31;9.13;;;5.40;;
485;SDS011;229;48.734;9.340;2024-02-14T09:24:59;11.30;;;5.45;;
485;SDS011;229;48.734;9.340;2024-02-14T09:27:29;9.77;;;4.60;;
485;SDS011;229;48.734;9.340;2024-02-14T09:29:56;9.98;;;5.50;;
485;SDS011;229;48.734;9.340;2024-02-14T09:32:23;6.97;;;4.38;;
485;SDS011;229;48.734;9.340;2024-02-14T09:34:52;12.93;;;5.35;;
485;SDS011;229;48.734;9.340;2024-02-14T09:37:19;8.40;;;4.88;;
485;SDS011;229;48.734;9.340;2024-02-14T09:39:46;10.70;;;4.95;;
485;SDS011;229;48.734;9.340;2024-02-14T09:42:13;9.52;;;4.53;;
485;SDS011;229;48.734;9.340;2024-02-14T09:44:43;7.45;;;4.28;;
485;SDS011;229;48.734;9.340;2024-02-14T09:47:10;8.50;;;5.80;;
485;SDS011;229;48.734;9.340;2024-02-14T09:49:37;6.75;;;4.90;;
485;SDS011;229;48.734;9.340;2024-02-14T09:52:06;6.43;;;4.72;;
485;SDS011;229;48.734;9.340;2024-02-14T09:54:35;9.77;;;4.55;;
485;SDS011;229;48.734;9.340;2024-02-14T09:57:04;10.50;;;5.38;;
485;SDS011;229;48.734;9.340;2024-02-14T09:59:31;8.50;;;4.78;;
485;SDS011;229;48.734;9.340;2024-02-14T10:01:59;7.32;;;4.55;;
485;SDS011;229;48.734;9.340;2024-02-14T10:04:27;6.75;;;4.03;;
485;SDS011;229;48.734;9.340;2024-02-14T10:06:55;8.27;;;5.15;;
485;SDS011;229;48.734;9.340;2024-02-14T10:09:25;8.27;;;5.40;;
485;SDS011;229;48.734;9.340;2024-02-14T10:11:53;9.25;;;4.50;;
485;SDS011;229;48.734;9.340;2024-02-14T10:14:22;7.55;;;4.28;;
485;SDS011;229;48.734;9.340;2024-02-14T10:16:49;10.52;;;4.18;;
485;SDS011;229;48.734;9.340;2024-02-14T10:19:16;8.02;;;4.55;;
485;SDS011;229;48.734;9.340;2024-02-14T10:21:44;7.20;;;4.07;;
485;SDS011;229;48.734;9.340;2024-02-14T10:24:23;8.38;;;4.45;;
485;SDS011;229;48.734;9.340;2024-02-14T10:26:50;4.90;;;3.60;;
485;SDS011;229;48.734;9.340;2024-02-14T10:29:18;4.32;;;3.30;;
485;SDS011;229;48.734;9.340;2024-02-14T10:31:46;8.95;;;4.00;;
485;SDS011;229;48.734;9.340;2024-02-14T10:34:14;8.30;;;4.00;;
485;SDS011;229;48.734;9.340;2024-02-14T10:36:41;6.32;;;3.88;;
485;SDS011;229;48.734;9.340;2024-02-14T10:39:09;7.22;;;4.70;;
485;SDS011;229;48.734;9.340;2024-02-14T10:41:39;8.85;;;4.10;;
485;SDS011;229;48.734;9.340;2024-02-14T10:44:06;5.95;;;3.05;;
485;SDS011;229;48.734;9.340;2024-02-14T10:46:35;6.93;;;3.90;;
485;SDS011;229;48.734;9.340;2024-02-14T10:49:03;8.77;;;3.47;;
485;SDS011;229;48.734;9.340;2024-02-14T10:51:32;4.05;;;2.47;;
485;SDS011;229;48.734;9.340;2024-02-14T10:54:00;2.05;;;1.60;;
485;SDS011;229;48.734;9.340;2024-02-14T10:56:31;2.45;;;1.77;;
485;SDS011;229;48.734;9.340;2024-02-14T10:58:59;5.20;;;3.22;;
485;SDS011;229;48.734;9.340;2024-02-14T11:01:28;4.65;;;2.00;;
485;SDS011;229;48.734;9.340;2024-02-14T11:03:58;2.20;;;1.90;;
485;SDS011;229;48.734;9.340;2024-02-14T11:06:25;5.82;;;3.80;;
485;SDS011;229;48.734;9.340;2024-02-14T11:08:57;6.95;;;2.85;;
485;SDS011;229;48.734;9.340;2024-02-14T11:11:27;2.30;;;2.10;;
485;SDS011;229;48.734;9.340;2024-02-14T11:13:55;3.00;;;1.80;;
485;SDS011;229;48.734;9.340;2024-02-14T11:16:24;2.25;;;1.55;;
485;SDS011;229;48.734;9.340;2024-02-14T11:18:53;2.22;;;1.70;;
485;SDS011;229;48.734;9.340;2024-02-14T11:21:27;2.08;;;1.85;;
485;SDS011;229;48.734;9.340;2024-02-14T11:23:56;3.50;;;2.88;;
485;SDS011;229;48.734;9.340;2024-02-14T11:26:24;2.75;;;2.10;;
485;SDS011;229;48.734;9.340;2024-02-14T11:28:59;5.80;;;3.45;;
485;SDS011;229;48.734;9.340;2024-02-14T11:31:32;5.18;;;2.38;;
485;SDS011;229;48.734;9.340;2024-02-14T11:34:02;11.77;;;7.53;;
485;SDS011;229;48.734;9.340;2024-02-14T11:36:30;4.30;;;2.38;;
485;SDS011;229;48.734;9.340;2024-02-14T11:39:01;2.47;;;1.90;;
485;SDS011;229;48.734;9.340;2024-02-14T11:41:29;3.75;;;2.15;;
485;SDS011;229;48.734;9.340;2024-02-14T11:43:56;4.55;;;1.98;;
485;SDS011;229;48.734;9.340;2024-02-14T11:46:29;3.35;;;1.90;;
485;SDS011;229;48.734;9.340;2024-02-14T11:48:57;4.32;;;1.95;;
485;SDS011;229;48.734;9.340;2024-02-14T11:51:26;2.28;;;1.98;;
485;SDS011;229;48.734;9.340;2024-02-14T11:53:53;1.60;;;1.50;;
485;SDS011;229;48.734;9.340;2024-02-14T11:56:20;2.17;;;1.58;;
485;SDS011;229;48.734;9.340;2024-02-14T11:58:48;2.78;;;1.90;;
485;SDS011;229;48.734;9.340;2024-02-14T12:01:16;5.13;;;1.60;;
485;SDS011;229;48.734;9.340;2024-02-14T12:03:43;3.67;;;1.95;;
485;SDS011;229;48.734;9.340;2024-02-14T12:06:12;4.93;;;1.88;;
485;SDS011;229;48.734;9.340;2024-02-14T12:08:40;3.65;;;3.22;;
485;SDS011;229;48.734;9.340;2024-02-14T12:11:07;5.80;;;2.40;;
485;SDS011;229;48.734;9.340;2024-02-14T12:13:34;3.97;;;2.95;;
485;SDS011;229;48.734;9.340;2024-02-14T12:16:03;5.07;;;1.85;;
485;SDS011;229;48.734;9.340;2024-02-14T12:18:30;3.15;;;1.75;;
485;SDS011;229;48.734;9.340;2024-02-14T12:21:05;4.72;;;1.52;;
485;SDS011;229;48.734;9.340;2024-02-14T12:23:35;2.35;;;1.60;;
485;SDS011;229;48.734;9.340;2024-02-14T12:26:02;2.15;;;1.85;;
485;SDS011;229;48.734;9.340;2024-02-14T12:28:29;3.42;;;2.10;;
485;SDS011;229;48.734;9.340;2024-02-14T12:30:57;2.33;;;1.60;;
485;SDS011;229;48.734;9.340;2024-02-14T12:33:25;2.13;;;1.60;;
485;SDS011;229;48.734;9.340;2024-02-14T12:35:53;5.43;;;1.35;;
485;SDS011;229;48.734;9.340;2024-02-14T12:38:21;2.55;;;1.45;;
485;SDS011;229;48.734;9.340;2024-02-14T12:40:50;4.40;;;1.40;;
485;SDS011;229;48.734;9.340;2024-02-14T12:43:19;4.75;;;1.52;;
485;SDS011;229;48.734;9.340;2024-02-14T12:45:46;2.60;;;1.30;;
485;SDS011;229;48.734;9.340;2024-02-14T12:48:21;4.10;;;1.10;;
485;SDS011;229;48.734;9.340;2024-02-14T12:50:48;2.72;;;1.83;;
485;SDS011;229;48.734;9.340;2024-02-14T12:53:16;2.20;;;1.48;;
485;SDS011;229;48.734;9.340;2024-02-14T12:55:44;1.40;;;1.10;;
485;SDS011;229;48.734;9.340;2024-02-14T12:58:13;4.10;;;1.60;;
485;SDS011;229;48.734;9.340;2024-02-14T13:00:40;1.58;;;1.30;;
485;SDS011;229;48.734;9.340;2024-02-14T13:03:09;1.75;;;1.35;;
485;SDS011;229;48.734;9.340;2024-02-14T13:05:36;4.75;;;3.17;;
485;SDS011;229;48.734;9.340;2024-02-14T13:08:04;2.95;;;1.90;;
485;SDS011;229;48.734;9.340;2024-02-14T13:10:31;2.13;;;1.75;;
485;SDS011;229;48.734;9.340;2024-02-14T13:12:59;2.40;;;1.70;;
485;SDS011;229;48.734;9.340;2024-02-14T13:15:27;2.17;;;1.33;;
485;SDS011;229;48.734;9.340;2024-02-14T13:17:55;3.05;;;1.30;;
485;SDS011;229;48.734;9.340;2024-02-14T13:20:24;2.75;;;1.10;;
485;SDS011;229;48.734;9.340;2024-02-14T13:22:51;1.90;;;1.20;;
485;SDS011;229;48.734;9.340;2024-02-14T13:25:18;3.00;;;1.45;;
485;SDS011;229;48.734;9.340;2024-02-14T13:27:46;3.15;;;1.40;;
485;SDS011;229;48.734;9.340;2024-02-14T13:30:14;5.50;;;1.30;;
485;SDS011;229;48.734;9.340;2024-02-14T13:32:42;3.28;;;2.10;;
485;SDS011;229;48.734;9.340;2024-02-14T13:35:09;2.70;;;1.52;;
485;SDS011;229;48.734;9.340;2024-02-14T13:37:38;2.20;;;1.27;;
485;SDS011;229;48.734;9.340;2024-02-14T13:40:06;2.13;;;1.40;;
485;SDS011;229;48.734;9.340;2024-02-14T13:42:35;2.05;;;1.17;;
485;SDS011;229;48.734;9.340;2024-02-14T13:45:03;1.45;;;1.20;;
485;SDS011;229;48.734;9.340;2024-02-14T13:47:34;2.50;;;1.33;;
485;SDS011;229;48.734;9.340;2024-02-14T13:50:05;2.65;;;1.20;;
485;SDS011;229;48.734;9.340;2024-02-14T13:52:32;2.15;;;1.52;;
485;SDS011;229;48.734;9.340;2024-02-14T13:55:00;3.85;;;1.65;;
485;SDS011;229;48.734;9.340;2024-02-14T13:57:27;1.50;;;1.20;;
485;SDS011;229;48.734;9.340;2024-02-14T13:59:55;1.77;;;1.30;;
485;SDS011;229;48.734;9.340;2024-02-14T14:02:22;1.92;;;1.30;;
485;SDS011;229;48.734;9.340;2024-02-14T14:04:49;1.90;;;1.30;;
485;SDS011;229;48.734;9.340;2024-02-14T14:07:19;1.77;;;1.20;;
485;SDS011;229;48.734;9.340;2024-02-14T14:09:47;1.45;;;1.20;;
485;SDS011;229;48.734;9.340;2024-02-14T14:12:15;1.40;;;1.08;;
485;SDS011;229;48.734;9.340;2024-02-14T14:14:41;2.92;;;1.60;;
485;SDS011;229;48.734;9.340;2024-02-14T14:17:08;4.60;;;3.30;;
485;SDS011;229;48.734;9.340;2024-02-14T14:19:35;2.40;;;1.48;;
485;SDS011;229;48.734;9.340;2024-02-14T14:22:02;2.53;;;1.42;;
485;SDS011;229;48.734;9.340;2024-02-14T14:24:31;4.57;;;1.80;;
485;SDS011;229;48.734;9.340;2024-02-14T14:26:58;1.42;;;1.10;;
485;SDS011;229;48.734;9.340;2024-02-14T14:29:25;1.55;;;1.25;;
485;SDS011;229;48.734;9.340;2024-02-14T14:31:53;1.23;;;1.10;;
485;SDS011;229;48.734;9.340;2024-02-14T14:34:20;1.25;;;1.20;;
485;SDS011;229;48.734;9.340;2024-02-14T14:36:47;1.15;;;1.10;;
485;SDS011;229;48.734;9.340;2024-02-14T14:39:14;4.82;;;1.23;;
485;SDS011;229;48.734;9.340;2024-02-14T14:41:43;1.48;;;1.20;;
485;SDS011;229;48.734;9.340;2024-02-14T14:44:10;2.25;;;1.70;;
485;SDS011;229;48.734;9.340;2024-02-14T14:46:37;2.70;;;1.45;;
485;SDS011;229;48.734;9.340;2024-02-14T14:49:07;3.45;;;1.90;;
485;SDS011;229;48.734;9.340;2024-02-14T14:51:34;1.83;;;1.40;;
485;SDS011;229;48.734;9.340;2024-02-14T14:54:03;2.45;;;1.55;;
485;SDS011;229;48.734;9.340;2024-02-14T14:56:30;1.30;;;1.20;;
485;SDS011;229;48.734;9.340;2024-02-14T14:58:58;4.28;;;1.80;;
485;SDS011;229;48.734;9.340;2024-02-14T15:01:28;3.67;;;1.40;;
485;SDS011;229;48.734;9.340;2024-02-14T15:03:55;3.10;;;1.60;;
485;SDS011;229;48.734;9.340;2024-02-14T15:06:23;3.70;;;1.60;;
485;SDS011;229;48.734;9.340;2024-02-14T15:08:50;2.40;;;1.45;;
485;SDS011;229;48.734;9.340;2024-02-14T15:11:17;2.05;;;1.50;;
485;SDS011;229;48.734;9.340;2024-02-14T15:13:46;3.42;;;1.60;;
485;SDS011;229;48.734;9.340;2024-02-14T15:16:14;2.17;;;1.88;;
485;SDS011;229;48.734;9.340;2024-02-14T15:18:41;3.20;;;1.35;;
485;SDS011;229;48.734;9.340;2024-02-14T15:21:10;2.30;;;1.20;;
485;SDS011;229;48.734;9.340;2024-02-14T15:23:37;2.00;;;1.50;;
485;SDS011;229;48.734;9.340;2024-02-14T15:26:04;2.90;;;2.58;;
485;SDS011;229;48.734;9.340;2024-02-14T15:28:33;4.40;;;2.90;;
485;SDS011;229;48.734;9.340;2024-02-14T15:31:05;2.28;;;1.60;;
485;SDS011;229;48.734;9.340;2024-02-14T15:33:52;1.20;;;1.20;;
485;SDS011;229;48.734;9.340;2024-02-14T15:36:20;1.52;;;1.17;;